Time;durP1;ratioP1;P1;durP2;ratioP2;P2;SDS_P1;SDS_P2;PMS_P1;PMS_P2;Temp;Humidity;BMP_temperature;BMP_pressure;BME280_temperature;BME280_humidity;BME280_pressure;Samples;Min_cycle;Max_cycle;Signal;HPM_P1;HPM_P2
2021/12/07 00:00:11;;;;;;;4.70;3.13;;;6.50;76.80;;;;;;5057122;28;20121;-85
2021/12/07 00:02:37;;;;;;;4.18;2.90;;;6.50;76.90;;;;;;5023237;28;20119;-85
2021/12/07 00:05:03;;;;;;;3.75;2.95;;;6.50;76.80;;;;;;5039409;28;20052;-85
2021/12/07 00:07:30;;;;;;;3.50;2.75;;;6.50;76.90;;;;;;5056607;28;20064;-86
2021/12/07 00:09:55;;;;;;;4.28;3.20;;;6.50;76.90;;;;;;5056820;28;20036;-85
2021/12/07 00:12:21;;;;;;;3.38;2.70;;;6.40;76.80;;;;;;5038842;28;20033;-85
2021/12/07 00:14:47;;;;;;;3.80;2.63;;;6.40;76.80;;;;;;5038829;28;20488;-85
2021/12/07 00:17:13;;;;;;;4.00;2.88;;;6.40;76.80;;;;;;5022325;28;20033;-84
2021/12/07 00:19:39;;;;;;;4.13;2.97;;;6.40;76.80;;;;;;5023086;28;20013;-85
2021/12/07 00:22:08;;;;;;;4.22;2.70;;;6.40;76.80;;;;;;5056665;28;20040;-85
2021/12/07 00:24:34;;;;;;;4.32;3.03;;;6.40;76.80;;;;;;5056268;28;20082;-84
2021/12/07 00:26:59;;;;;;;5.07;3.10;;;6.40;76.80;;;;;;5020968;28;20128;-84
2021/12/07 00:29:25;;;;;;;3.95;2.83;;;6.40;76.80;;;;;;5038432;28;20032;-88
2021/12/07 00:32:07;;;;;;;4.13;2.95;;;6.40;76.80;;;;;;5038287;28;20029;-84
2021/12/07 00:36:59;;;;;;;4.15;3.20;;;6.30;76.80;;;;;;5056433;28;20029;-83
2021/12/07 00:39:26;;;;;;;3.42;2.72;;;6.30;76.80;;;;;;5022017;28;20111;-85
2021/12/07 00:41:53;;;;;;;3.80;2.80;;;6.30;76.80;;;;;;5038233;28;20033;-83
2021/12/07 00:44:21;;;;;;;4.38;3.00;;;6.30;76.80;;;;;;5021575;28;20032;-83
2021/12/07 00:46:48;;;;;;;4.63;3.22;;;6.30;76.80;;;;;;5021192;28;20025;-81
2021/12/07 00:49:14;;;;;;;4.30;3.00;;;6.30;76.80;;;;;;5037791;28;20033;-88
2021/12/07 00:51:40;;;;;;;4.25;2.95;;;6.30;76.80;;;;;;5022034;28;20128;-82
2021/12/07 00:54:09;;;;;;;4.15;2.95;;;6.30;76.80;;;;;;5021728;28;20033;-82
2021/12/07 00:56:36;;;;;;;3.92;2.85;;;6.30;76.80;;;;;;5037851;28;20033;-82
2021/12/07 00:59:03;;;;;;;3.70;2.83;;;6.30;76.80;;;;;;5037452;28;20532;-87
2021/12/07 01:01:29;;;;;;;3.70;2.70;;;6.30;76.80;;;;;;5037255;28;20033;-83
2021/12/07 01:03:55;;;;;;;4.05;2.92;;;6.20;76.80;;;;;;5020763;28;20040;-82
2021/12/07 01:25:15;;;;;;;3.83;2.92;;;6.10;76.80;;;;;;5037493;28;20474;-82
2021/12/07 01:27:42;;;;;;;4.68;2.83;;;6.20;76.90;;;;;;5037033;28;20044;-85
2021/12/07 01:30:16;;;;;;;3.92;2.75;;;6.10;76.90;;;;;;5020498;28;20025;-82
2021/12/07 01:36:35;;;;;;;3.85;2.67;;;6.10;76.90;;;;;;5036980;28;20116;-84
2021/12/07 01:38:37;;;;;;;3.72;2.60;;;6.10;76.90;;;;;;5020628;28;20075;-83
2021/12/07 01:44:20;;;;;;;3.80;2.80;;;6.10;76.90;;;;;;5022830;28;20114;-83
2021/12/07 01:59:59;;;;;;;4.13;2.92;;;6.00;76.90;;;;;;5037326;28;20037;-83
2021/12/07 02:02:28;;;;;;;4.05;2.95;;;6.00;76.90;;;;;;5036752;28;20106;-83
2021/12/07 02:04:56;;;;;;;4.10;2.90;;;6.00;77.00;;;;;;5020737;28;20080;-83
2021/12/07 02:07:27;;;;;;;4.53;3.20;;;6.00;76.90;;;;;;5036945;28;20049;-84
2021/12/07 02:10:04;;;;;;;4.82;3.40;;;6.00;76.90;;;;;;5020227;28;20485;-83
2021/12/07 02:12:42;;;;;;;4.07;2.97;;;6.00;76.90;;;;;;5006557;28;20091;-83
2021/12/07 02:15:25;;;;;;;3.95;3.00;;;6.00;76.90;;;;;;5020776;28;20466;-83
2021/12/07 02:17:52;;;;;;;4.32;3.20;;;6.00;77.00;;;;;;5036295;28;20048;-83
2021/12/07 02:20:22;;;;;;;3.83;3.00;;;6.00;76.90;;;;;;5020187;28;20021;-85
2021/12/07 02:22:48;;;;;;;4.40;3.30;;;6.00;76.90;;;;;;5020062;28;20474;-84
2021/12/07 02:25:18;;;;;;;4.53;3.50;;;5.90;76.90;;;;;;5036606;28;20124;-83
2021/12/07 02:27:46;;;;;;;4.75;3.30;;;6.00;77.00;;;;;;5020078;28;20025;-83
2021/12/07 02:30:16;;;;;;;4.90;3.45;;;5.90;76.90;;;;;;5036615;28;20044;-83
2021/12/07 02:32:51;;;;;;;4.95;3.65;;;6.00;77.00;;;;;;5021069;28;20420;-84
2021/12/07 02:35:27;;;;;;;4.53;3.30;;;6.00;77.00;;;;;;5020350;28;20036;-83
2021/12/07 02:37:59;;;;;;;5.78;3.75;;;5.90;76.90;;;;;;5021195;28;20090;-85
2021/12/07 02:40:30;;;;;;;5.40;3.47;;;6.00;77.00;;;;;;5020897;28;20037;-85
2021/12/07 02:42:55;;;;;;;4.15;3.20;;;5.90;76.90;;;;;;5020019;28;20366;-85
2021/12/07 02:45:23;;;;;;;5.55;4.07;;;5.90;76.90;;;;;;5036867;28;20037;-83
2021/12/07 02:47:49;;;;;;;5.60;3.88;;;5.90;76.90;;;;;;5003956;28;20068;-84
2021/12/07 02:50:17;;;;;;;5.25;4.00;;;5.90;76.90;;;;;;5022241;28;20036;-84
2021/12/07 02:52:44;;;;;;;5.63;4.05;;;5.90;76.90;;;;;;5040028;28;20021;-87
2021/12/07 02:55:11;;;;;;;5.53;3.90;;;5.90;76.90;;;;;;5023854;28;20098;-84
2021/12/07 02:57:37;;;;;;;5.75;4.10;;;5.90;77.00;;;;;;5040129;28;20021;-86
2021/12/07 03:00:13;;;;;;;4.43;3.50;;;5.90;77.00;;;;;;5024437;28;20033;-85
2021/12/07 03:02:56;;;;;;;5.95;4.25;;;5.90;77.00;;;;;;5056505;28;20037;-84
2021/12/07 03:26:48;;;;;;;6.05;4.22;;;5.80;77.00;;;;;;5056590;28;20037;-83
2021/12/07 03:29:15;;;;;;;5.10;4.00;;;5.80;77.00;;;;;;5056667;28;20040;-83
2021/12/07 03:31:41;;;;;;;6.40;4.78;;;5.80;77.10;;;;;;5039654;28;20029;-84
2021/12/07 03:34:07;;;;;;;5.50;4.07;;;5.70;77.00;;;;;;5039140;28;20029;-83
2021/12/07 03:36:34;;;;;;;5.70;4.25;;;5.80;77.10;;;;;;5039480;28;20055;-83
2021/12/07 03:39:02;;;;;;;6.10;4.40;;;5.80;77.70;;;;;;5056128;28;20044;-83
2021/12/07 03:41:29;;;;;;;6.82;4.32;;;5.80;77.10;;;;;;5039502;28;20100;-84
2021/12/07 03:43:55;;;;;;;5.75;4.20;;;5.70;77.00;;;;;;5023781;28;20029;-85
2021/12/07 03:46:21;;;;;;;5.70;4.20;;;5.70;77.00;;;;;;5056232;28;20028;-85
2021/12/07 03:48:47;;;;;;;7.32;4.30;;;5.70;77.10;;;;;;5039264;28;20057;-85
2021/12/07 03:51:14;;;;;;;5.72;4.40;;;5.70;77.00;;;;;;5055482;28;20393;-83
2021/12/07 03:53:40;;;;;;;5.97;4.30;;;5.70;77.00;;;;;;5055791;28;20100;-83
2021/12/07 03:56:08;;;;;;;7.13;4.28;;;5.70;77.00;;;;;;5039180;28;20040;-83
2021/12/07 03:58:38;;;;;;;7.00;4.50;;;5.70;77.10;;;;;;5055843;28;20017;-83
2021/12/07 04:01:10;;;;;;;5.70;4.05;;;5.70;77.10;;;;;;5038319;28;20366;-84
2021/12/07 04:03:38;;;;;;;5.63;4.47;;;5.70;77.10;;;;;;5039383;28;20037;-83
2021/12/07 04:06:06;;;;;;;6.05;4.18;;;5.70;77.10;;;;;;5055534;28;20021;-84
2021/12/07 04:08:37;;;;;;;6.15;4.20;;;5.70;77.00;;;;;;5038952;28;20186;-89
2021/12/07 04:11:04;;;;;;;6.13;4.55;;;5.70;77.10;;;;;;5056277;28;20029;-83
2021/12/07 04:13:31;;;;;;;5.43;4.28;;;5.60;77.00;;;;;;5038609;28;20470;-85
2021/12/07 04:15:58;;;;;;;5.13;3.90;;;5.70;77.10;;;;;;5021649;28;20032;-84
2021/12/07 04:18:25;;;;;;;5.47;3.75;;;5.60;77.10;;;;;;5038297;28;20017;-84
2021/12/07 04:20:51;;;;;;;6.07;4.28;;;5.70;77.10;;;;;;5038419;28;20134;-84
2021/12/07 04:23:17;;;;;;;5.85;4.13;;;5.70;77.10;;;;;;5054815;28;20111;-83
2021/12/07 04:25:43;;;;;;;6.03;3.53;;;5.70;77.10;;;;;;5055147;28;20037;-83
2021/12/07 04:28:09;;;;;;;5.57;4.20;;;5.60;77.00;;;;;;5054734;28;20108;-85
2021/12/07 04:30:41;;;;;;;5.30;4.03;;;5.60;77.10;;;;;;5038231;28;20025;-83
2021/12/07 04:33:09;;;;;;;6.60;4.18;;;5.60;77.10;;;;;;5056206;28;20096;-82
2021/12/07 04:35:35;;;;;;;6.03;3.55;;;5.60;77.10;;;;;;5055614;28;20049;-82
2021/12/07 04:38:01;;;;;;;5.40;3.55;;;5.60;77.10;;;;;;5038287;28;20071;-82
2021/12/07 04:40:30;;;;;;;5.78;3.60;;;5.60;77.10;;;;;;5038949;28;20025;-82
2021/12/07 04:42:57;;;;;;;4.93;3.67;;;5.60;77.10;;;;;;5037886;28;20029;-82
2021/12/07 04:58:56;;;;;;;4.88;3.28;;;5.60;77.10;;;;;;5040604;28;20037;-83
2021/12/07 05:01:22;;;;;;;4.75;3.17;;;5.50;77.10;;;;;;5054400;28;20520;-85
2021/12/07 05:03:49;;;;;;;4.63;3.45;;;5.50;77.20;;;;;;5038380;28;20406;-82
2021/12/07 05:06:16;;;;;;;4.57;3.00;;;5.50;77.20;;;;;;5038158;28;20119;-84
2021/12/07 05:08:54;;;;;;;4.68;3.58;;;5.50;77.20;;;;;;5004891;28;20057;-86
2021/12/07 05:13:58;;;;;;;5.32;3.10;;;5.50;77.20;;;;;;5053911;28;20083;-87
2021/12/07 05:24:26;;;;;;;4.60;2.83;;;5.50;77.20;;;;;;5054346;28;20500;-87
2021/12/07 05:37:54;;;;;;;5.15;3.00;;;5.50;77.20;;;;;;5054895;28;20036;-86
2021/12/07 05:40:22;;;;;;;5.20;3.30;;;5.50;77.30;;;;;;5053832;28;20051;-86
2021/12/07 05:42:49;;;;;;;5.20;3.33;;;5.50;77.30;;;;;;5053699;28;20112;-84
2021/12/07 05:45:18;;;;;;;4.93;2.92;;;5.50;77.40;;;;;;5036968;28;20052;-85
2021/12/07 05:47:45;;;;;;;4.55;3.10;;;5.50;77.30;;;;;;5054978;28;20036;-84
2021/12/07 05:50:14;;;;;;;4.63;3.03;;;5.50;77.30;;;;;;5053276;28;20100;-86
2021/12/07 05:52:40;;;;;;;4.03;2.78;;;5.50;77.30;;;;;;5037584;28;20074;-88
2021/12/07 05:55:07;;;;;;;4.63;2.95;;;5.50;77.30;;;;;;5021244;28;20120;-83
2021/12/07 05:57:34;;;;;;;5.10;2.92;;;5.50;77.30;;;;;;5036580;28;20017;-81
2021/12/07 05:59:59;;;;;;;4.68;3.15;;;5.50;77.30;;;;;;5036867;28;20071;-82
2021/12/07 06:02:25;;;;;;;4.95;3.40;;;5.50;77.30;;;;;;5037248;28;20037;-87
2021/12/07 06:04:51;;;;;;;4.78;3.13;;;5.50;77.30;;;;;;5036905;28;20128;-88
2021/12/07 06:07:17;;;;;;;6.65;3.15;;;5.50;77.20;;;;;;5037123;28;20064;-84
2021/12/07 06:09:43;;;;;;;4.53;2.95;;;5.50;77.20;;;;;;5036203;28;20465;-89
2021/12/07 06:12:09;;;;;;;3.42;2.55;;;5.50;77.20;;;;;;5054414;28;20078;-92
2021/12/07 06:14:41;;;;;;;4.65;3.03;;;5.50;77.20;;;;;;5037120;28;20485;-93
2021/12/07 06:17:07;;;;;;;4.43;2.92;;;5.50;77.20;;;;;;5022795;28;20370;-94
2021/12/07 06:19:33;;;;;;;4.60;2.85;;;5.50;77.20;;;;;;5038590;28;20026;-94
2021/12/07 06:21:59;;;;;;;3.60;2.47;;;5.50;77.20;;;;;;5021672;28;20107;-94
2021/12/07 06:24:25;;;;;;;3.95;2.63;;;5.50;77.30;;;;;;5023840;28;20123;-89
2021/12/07 06:26:51;;;;;;;5.50;3.13;;;5.50;77.90;;;;;;5024897;28;20373;-85
2021/12/07 06:29:17;;;;;;;4.38;2.72;;;5.50;77.20;;;;;;5057125;28;20362;-85
2021/12/07 06:31:43;;;;;;;4.07;2.75;;;5.50;77.20;;;;;;5041592;28;20025;-84
2021/12/07 06:34:10;;;;;;;3.15;2.30;;;5.50;77.30;;;;;;5057822;28;20528;-85
2021/12/07 06:36:37;;;;;;;3.85;2.63;;;5.50;77.20;;;;;;5040681;28;20033;-84
2021/12/07 06:39:08;;;;;;;3.15;2.30;;;5.50;77.30;;;;;;5024090;28;20039;-86
2021/12/07 06:41:34;;;;;;;3.97;2.60;;;5.50;77.30;;;;;;5058576;28;20041;-86
2021/12/07 06:44:00;;;;;;;4.40;2.70;;;5.50;77.20;;;;;;5041291;28;20033;-86
2021/12/07 06:46:26;;;;;;;3.28;2.35;;;5.50;77.20;;;;;;5022516;28;20053;-86
2021/12/07 06:48:52;;;;;;;3.08;2.10;;;5.50;77.20;;;;;;5040161;28;20061;-86
2021/12/07 06:51:18;;;;;;;5.30;2.72;;;5.50;77.20;;;;;;5040227;28;20037;-86
2021/12/07 06:53:44;;;;;;;4.18;2.58;;;5.50;77.30;;;;;;5024008;28;20039;-84
2021/12/07 06:56:12;;;;;;;5.45;2.17;;;5.50;77.30;;;;;;5023737;28;20029;-84
2021/12/07 06:58:38;;;;;;;3.75;2.50;;;5.50;77.30;;;;;;5024232;28;20029;-85
2021/12/07 07:01:06;;;;;;;3.90;2.25;;;5.50;77.30;;;;;;5023655;28;20123;-84
2021/12/07 07:03:33;;;;;;;4.25;2.60;;;5.50;77.30;;;;;;5024549;28;20028;-85
2021/12/07 07:06:00;;;;;;;2.70;2.08;;;5.50;77.30;;;;;;5023603;28;20474;-84
2021/12/07 07:08:26;;;;;;;3.97;2.08;;;5.50;77.30;;;;;;5023498;28;20405;-85
2021/12/07 07:10:52;;;;;;;3.05;2.35;;;5.50;77.20;;;;;;5040422;28;20033;-86
2021/12/07 07:13:18;;;;;;;4.43;2.47;;;5.50;77.20;;;;;;5040046;28;20032;-85
2021/12/07 07:15:44;;;;;;;3.75;2.35;;;5.50;77.90;;;;;;5057143;28;20474;-86
2021/12/07 07:18:10;;;;;;;3.42;2.08;;;5.50;77.20;;;;;;5023069;28;20017;-85
2021/12/07 07:20:36;;;;;;;3.55;2.20;;;5.50;77.20;;;;;;5040263;28;20103;-85
2021/12/07 07:23:03;;;;;;;3.05;1.95;;;5.50;77.30;;;;;;5039751;28;20045;-87
2021/12/07 07:25:28;;;;;;;3.15;2.05;;;5.50;77.30;;;;;;5057943;28;20082;-84
2021/12/07 07:27:54;;;;;;;3.92;2.17;;;5.50;77.30;;;;;;5007001;28;20025;-84
2021/12/07 07:30:20;;;;;;;3.33;2.17;;;5.50;77.30;;;;;;5006384;28;20059;-84
2021/12/07 07:32:47;;;;;;;4.82;2.30;;;5.50;77.30;;;;;;5023010;28;20424;-84
2021/12/07 07:35:14;;;;;;;2.38;2.00;;;5.50;77.30;;;;;;5021910;28;20029;-87
2021/12/07 07:37:41;;;;;;;3.20;2.25;;;5.50;77.30;;;;;;5023321;28;20021;-88
2021/12/07 07:40:10;;;;;;;3.28;2.05;;;5.50;77.30;;;;;;5039222;28;20065;-84
2021/12/07 07:42:36;;;;;;;3.00;2.10;;;5.50;77.30;;;;;;5022762;28;20112;-84
2021/12/07 07:45:13;;;;;;;3.22;2.40;;;5.50;77.20;;;;;;5056186;28;20040;-85
2021/12/07 07:47:40;;;;;;;3.63;2.08;;;5.50;77.30;;;;;;5055851;28;20029;-84
2021/12/07 07:50:09;;;;;;;2.67;1.90;;;5.50;77.20;;;;;;5039132;28;20021;-88
2021/12/07 07:52:35;;;;;;;3.70;2.40;;;5.50;77.30;;;;;;5056237;28;20037;-84
2021/12/07 07:55:01;;;;;;;2.97;1.80;;;5.50;77.30;;;;;;5039080;28;20032;-84
2021/12/07 07:57:28;;;;;;;3.50;1.90;;;5.50;77.20;;;;;;5055757;28;20123;-84
2021/12/07 07:59:53;;;;;;;3.88;2.00;;;5.50;77.20;;;;;;5039260;28;20035;-84
2021/12/07 08:02:20;;;;;;;3.50;2.00;;;5.50;77.30;;;;;;5022645;28;20120;-84
2021/12/07 08:04:47;;;;;;;2.50;2.00;;;5.50;77.30;;;;;;5055345;28;20029;-86
2021/12/07 08:07:13;;;;;;;2.78;2.08;;;5.50;77.30;;;;;;5022689;28;20401;-84
2021/12/07 08:09:39;;;;;;;3.33;1.98;;;5.50;77.20;;;;;;5055230;28;20052;-86
2021/12/07 08:12:06;;;;;;;4.05;2.30;;;5.50;77.30;;;;;;5055276;28;20029;-89
2021/12/07 08:14:33;;;;;;;2.40;1.92;;;5.50;77.30;;;;;;5055589;28;20040;-86
2021/12/07 08:16:59;;;;;;;3.35;2.10;;;5.50;77.30;;;;;;5038771;28;20163;-84
2021/12/07 08:19:25;;;;;;;2.97;1.95;;;5.50;77.30;;;;;;5038515;28;20052;-85
2021/12/07 08:21:50;;;;;;;2.92;1.90;;;5.50;77.30;;;;;;5038662;28;20040;-85
2021/12/07 08:24:16;;;;;;;3.20;1.90;;;5.50;77.30;;;;;;5022639;28;20032;-86
2021/12/07 08:26:43;;;;;;;2.70;1.88;;;5.40;77.20;;;;;;5055100;28;20057;-84
2021/12/07 08:29:08;;;;;;;2.72;2.05;;;5.50;77.30;;;;;;5022882;28;20117;-84
2021/12/07 08:31:34;;;;;;;3.58;2.10;;;5.50;77.30;;;;;;5054657;28;20060;-85
2021/12/07 08:34:00;;;;;;;3.45;2.00;;;5.50;77.30;;;;;;5038295;28;20410;-84
2021/12/07 08:36:27;;;;;;;3.28;1.85;;;5.50;77.30;;;;;;5054464;28;20021;-86
2021/12/07 08:38:53;;;;;;;3.05;1.92;;;5.50;77.30;;;;;;5039028;28;20123;-85
2021/12/07 08:41:19;;;;;;;3.03;2.10;;;5.50;77.30;;;;;;5038141;28;20489;-85
2021/12/07 08:43:45;;;;;;;2.92;1.88;;;5.40;77.20;;;;;;5038287;28;20056;-86
2021/12/07 08:46:14;;;;;;;2.13;1.65;;;5.50;77.30;;;;;;5054932;28;20512;-85
2021/12/07 08:48:41;;;;;;;2.72;1.95;;;5.50;77.30;;;;;;5053745;28;20021;-85
2021/12/07 08:51:11;;;;;;;2.13;1.90;;;5.50;77.30;;;;;;5054289;28;20036;-85
2021/12/07 08:53:44;;;;;;;2.92;1.98;;;5.50;77.30;;;;;;5038096;28;20025;-85
2021/12/07 09:01:39;;;;;;;2.15;1.80;;;5.50;77.30;;;;;;5040853;28;20041;-86
2021/12/07 09:04:05;;;;;;;2.47;1.70;;;5.50;77.20;;;;;;5021551;28;20025;-86
2021/12/07 09:06:31;;;;;;;2.33;2.00;;;5.40;77.20;;;;;;5054579;28;20501;-86
2021/12/07 09:08:57;;;;;;;3.05;2.00;;;5.40;77.30;;;;;;5037557;28;20053;-85
2021/12/07 09:11:24;;;;;;;2.75;1.67;;;5.50;77.40;;;;;;5037753;28;20033;-85
2021/12/07 09:13:51;;;;;;;2.38;1.90;;;5.50;77.40;;;;;;5037827;28;20116;-85
2021/12/07 09:16:18;;;;;;;2.70;1.80;;;5.50;77.30;;;;;;5054243;28;20369;-85
2021/12/07 09:18:45;;;;;;;3.67;1.80;;;5.50;77.30;;;;;;5037627;28;20048;-85
2021/12/07 09:21:11;;;;;;;2.72;1.90;;;5.50;77.30;;;;;;5054439;28;20033;-85
2021/12/07 09:23:37;;;;;;;3.00;1.92;;;5.50;77.30;;;;;;5055091;28;20036;-84
2021/12/07 09:26:05;;;;;;;2.88;2.25;;;5.50;77.30;;;;;;5037721;28;20037;-86
2021/12/07 09:28:31;;;;;;;2.75;2.00;;;5.50;77.30;;;;;;5037721;28;20036;-87
2021/12/07 09:30:57;;;;;;;2.33;1.92;;;5.50;77.30;;;;;;5037540;28;20036;-88
2021/12/07 09:33:26;;;;;;;3.53;2.30;;;5.50;77.30;;;;;;5038128;28;20063;-87
2021/12/07 09:35:53;;;;;;;3.05;2.08;;;5.50;77.30;;;;;;5053703;28;20040;-83
2021/12/07 09:38:21;;;;;;;2.80;1.98;;;5.50;77.30;;;;;;5053770;28;20115;-85
2021/12/07 09:40:48;;;;;;;2.40;1.80;;;5.50;77.30;;;;;;5037349;28;20025;-84
2021/12/07 09:43:15;;;;;;;2.83;1.92;;;5.50;77.30;;;;;;5037659;28;20036;-90
2021/12/07 09:45:42;;;;;;;2.42;1.90;;;5.50;77.30;;;;;;5036776;28;20095;-85
2021/12/07 09:48:10;;;;;;;2.15;1.85;;;5.50;77.30;;;;;;5037406;28;20017;-84
2021/12/07 09:50:38;;;;;;;2.83;1.95;;;5.50;77.30;;;;;;5036957;28;20029;-85
2021/12/07 09:53:07;;;;;;;2.88;2.10;;;5.50;77.30;;;;;;5054485;28;20025;-85
2021/12/07 09:55:34;;;;;;;2.72;2.03;;;5.50;77.30;;;;;;5020734;28;20037;-86
2021/12/07 09:58:00;;;;;;;3.28;2.13;;;5.50;77.30;;;;;;5004167;28;20117;-85
2021/12/07 10:00:26;;;;;;;2.72;2.00;;;5.50;77.30;;;;;;5036824;28;20104;-86
2021/12/07 10:02:53;;;;;;;4.50;2.28;;;5.60;77.30;;;;;;5053444;28;20033;-87
2021/12/07 10:05:20;;;;;;;2.65;2.13;;;5.60;77.30;;;;;;5053649;28;20474;-86
2021/12/07 10:07:47;;;;;;;4.55;2.33;;;5.60;77.30;;;;;;5053735;28;20476;-88
2021/12/07 10:10:23;;;;;;;2.88;2.15;;;5.60;77.30;;;;;;5054414;28;20128;-85
2021/12/07 10:12:50;;;;;;;3.00;2.00;;;5.60;77.30;;;;;;5037798;28;20107;-86
2021/12/07 10:15:15;;;;;;;2.78;2.10;;;5.60;77.30;;;;;;5037236;28;20462;-86
2021/12/07 10:17:44;;;;;;;4.75;2.20;;;5.60;77.30;;;;;;5053317;28;20029;-87
2021/12/07 10:20:25;;;;;;;2.78;2.05;;;5.60;77.30;;;;;;5054375;28;20052;-86
2021/12/07 10:22:52;;;;;;;2.50;2.03;;;5.60;77.50;;;;;;5053572;28;20473;-85
2021/12/07 10:25:26;;;;;;;3.03;2.15;;;5.60;77.30;;;;;;5053241;28;20492;-87
2021/12/07 10:27:52;;;;;;;3.67;2.22;;;5.60;77.30;;;;;;5053341;28;20029;-85
2021/12/07 10:30:21;;;;;;;3.65;2.20;;;5.60;77.30;;;;;;5021551;28;20029;-86
2021/12/07 10:33:03;;;;;;;4.35;2.63;;;5.60;77.30;;;;;;5054065;28;20488;-86
2021/12/07 10:35:35;;;;;;;3.60;2.00;;;5.60;77.40;;;;;;5053061;28;20044;-86
2021/12/07 10:38:13;;;;;;;3.30;2.05;;;5.60;77.30;;;;;;5037150;28;20024;-85
2021/12/07 10:41:01;;;;;;;4.20;2.35;;;5.70;77.40;;;;;;5052895;28;20032;-84
2021/12/07 10:43:47;;;;;;;3.28;1.98;;;5.70;77.50;;;;;;5053505;28;20033;-85
2021/12/07 10:46:31;;;;;;;3.55;2.28;;;5.70;77.40;;;;;;5054100;28;20087;-85
2021/12/07 10:49:25;;;;;;;3.72;2.30;;;5.70;77.50;;;;;;5053781;28;20029;-85
2021/12/07 10:52:14;;;;;;;2.53;2.10;;;5.70;77.50;;;;;;5053505;28;20481;-84
2021/12/07 10:55:10;;;;;;;3.35;2.10;;;5.70;77.50;;;;;;5053717;28;20461;-84
2021/12/07 10:58:00;;;;;;;3.25;2.22;;;5.70;77.60;;;;;;5036829;28;20040;-85
2021/12/07 11:00:39;;;;;;;3.40;2.10;;;5.70;77.50;;;;;;5036492;28;20112;-84
2021/12/07 11:03:20;;;;;;;3.38;2.35;;;5.70;77.50;;;;;;5054380;28;20041;-85
2021/12/07 11:05:54;;;;;;;3.33;2.08;;;5.70;77.50;;;;;;5037309;28;20033;-85
2021/12/07 11:08:28;;;;;;;3.28;2.00;;;5.70;77.50;;;;;;5053997;28;20037;-83
2021/12/07 11:10:55;;;;;;;2.53;2.03;;;5.70;77.50;;;;;;5037439;28;20120;-87
2021/12/07 11:13:33;;;;;;;4.32;2.28;;;5.70;77.50;;;;;;5039866;28;20032;-85
2021/12/07 11:16:10;;;;;;;4.20;2.28;;;5.70;77.50;;;;;;5057520;28;20060;-85
2021/12/07 11:18:48;;;;;;;3.42;2.50;;;5.80;77.50;;;;;;5056326;28;20035;-85
2021/12/07 11:21:17;;;;;;;2.63;2.00;;;5.80;77.50;;;;;;5057482;28;20182;-85
2021/12/07 11:23:46;;;;;;;3.45;2.22;;;5.80;77.50;;;;;;5039780;28;20040;-85
2021/12/07 11:31:30;;;;;;;3.47;2.35;;;5.90;77.50;;;;;;5056875;28;20033;-86
2021/12/07 11:34:17;;;;;;;4.40;2.13;;;5.90;77.50;;;;;;5039384;28;20021;-87
2021/12/07 11:36:55;;;;;;;3.30;2.25;;;5.90;77.60;;;;;;5056102;28;20099;-86
2021/12/07 11:39:35;;;;;;;4.32;2.40;;;5.90;77.60;;;;;;5056337;28;20098;-86
2021/12/07 11:42:14;;;;;;;3.45;2.20;;;5.90;77.60;;;;;;5056142;28;20039;-85
2021/12/07 11:44:46;;;;;;;2.70;2.05;;;5.90;77.60;;;;;;5039494;28;20413;-84
2021/12/07 11:47:12;;;;;;;4.75;2.45;;;5.90;77.60;;;;;;5057034;28;20037;-84
2021/12/07 11:49:38;;;;;;;3.08;2.13;;;5.90;77.50;;;;;;5039916;28;20032;-84
2021/12/07 11:52:07;;;;;;;4.60;2.38;;;6.00;77.60;;;;;;5039126;28;20052;-84
2021/12/07 11:54:43;;;;;;;3.00;2.17;;;6.00;77.60;;;;;;5038791;28;20021;-86
2021/12/07 11:57:13;;;;;;;3.33;2.20;;;6.00;77.60;;;;;;5055917;28;20029;-88
2021/12/07 11:59:39;;;;;;;3.13;2.20;;;6.00;77.60;;;;;;5055772;28;20029;-83
2021/12/07 12:02:08;;;;;;;3.58;2.25;;;6.00;77.60;;;;;;5055367;28;20167;-80
2021/12/07 12:04:34;;;;;;;2.80;2.08;;;6.00;77.60;;;;;;5039401;28;20037;-83
2021/12/07 12:07:00;;;;;;;2.65;1.88;;;6.00;77.50;;;;;;5038862;28;20032;-84
2021/12/07 12:09:28;;;;;;;3.33;2.28;;;6.10;77.60;;;;;;5038820;28;20053;-88
2021/12/07 12:12:09;;;;;;;3.22;2.00;;;6.10;77.60;;;;;;5055424;28;20115;-84
2021/12/07 12:14:55;;;;;;;3.58;2.20;;;6.10;77.70;;;;;;5055066;28;20079;-85
2021/12/07 12:17:24;;;;;;;2.72;2.17;;;6.10;77.60;;;;;;5055495;28;20025;-84
2021/12/07 12:19:56;;;;;;;3.15;2.22;;;6.10;77.60;;;;;;5038483;28;20466;-84
2021/12/07 12:22:36;;;;;;;3.58;2.30;;;6.10;77.60;;;;;;5038396;28;20091;-86
2021/12/07 12:25:09;;;;;;;3.45;2.33;;;6.10;77.70;;;;;;5055839;28;20044;-84
2021/12/07 12:27:35;;;;;;;4.15;1.95;;;6.20;77.70;;;;;;5056093;28;20055;-84
2021/12/07 12:30:27;;;;;;;3.10;2.15;;;6.20;77.70;;;;;;5054901;28;20029;-85
2021/12/07 12:33:08;;;;;;;3.92;2.15;;;6.20;77.80;;;;;;5043420;28;20490;-86
2021/12/07 12:35:40;;;;;;;4.15;2.35;;;6.20;77.60;;;;;;5055895;28;20102;-86
2021/12/07 12:38:28;;;;;;;4.57;3.10;;;6.20;77.60;;;;;;5054848;28;20040;-83
2021/12/07 12:41:06;;;;;;;2.60;2.08;;;6.30;77.80;;;;;;5038929;28;20115;-85
2021/12/07 12:43:51;;;;;;;2.75;1.98;;;6.30;77.70;;;;;;5038017;28;20037;-84
2021/12/07 12:46:30;;;;;;;4.03;2.28;;;6.30;77.70;;;;;;5038783;28;20066;-85
2021/12/07 12:49:04;;;;;;;2.58;2.00;;;6.40;77.60;;;;;;5039170;28;20453;-84
2021/12/07 12:51:43;;;;;;;3.70;2.42;;;6.40;77.60;;;;;;5038012;28;20478;-87
2021/12/07 12:54:09;;;;;;;4.75;2.40;;;6.40;77.60;;;;;;5055175;28;20035;-85
2021/12/07 12:56:36;;;;;;;3.17;2.10;;;6.40;77.50;;;;;;5054492;28;20107;-84
2021/12/07 12:59:09;;;;;;;2.83;1.83;;;6.40;77.50;;;;;;5037916;28;20076;-84
2021/12/07 13:01:38;;;;;;;3.13;2.40;;;6.40;77.60;;;;;;5053969;28;20036;-84
2021/12/07 13:04:23;;;;;;;2.90;2.20;;;6.50;77.50;;;;;;5054465;28;20461;-83
2021/12/07 13:07:00;;;;;;;4.70;2.50;;;6.50;77.60;;;;;;5054754;28;20029;-84
2021/12/07 13:09:32;;;;;;;3.72;2.20;;;6.50;77.50;;;;;;5054342;28;20099;-83
2021/12/07 13:12:15;;;;;;;3.03;2.15;;;6.50;77.50;;;;;;5037894;28;20095;-83
2021/12/07 13:14:50;;;;;;;2.88;1.90;;;6.50;77.50;;;;;;5038348;28;20374;-82
2021/12/07 13:17:17;;;;;;;3.70;2.10;;;6.50;77.50;;;;;;5037451;28;20025;-86
2021/12/07 13:20:17;;;;;;;2.92;2.10;;;6.60;77.50;;;;;;5054706;28;20029;-83
2021/12/07 13:22:48;;;;;;;4.28;2.28;;;6.60;77.60;;;;;;5053850;28;20041;-85
2021/12/07 13:25:25;;;;;;;3.40;2.22;;;6.60;77.40;;;;;;5037617;28;20029;-83
2021/12/07 13:28:04;;;;;;;3.63;2.03;;;6.60;77.50;;;;;;5054072;28;20029;-83
2021/12/07 13:30:37;;;;;;;2.92;2.00;;;6.70;77.60;;;;;;5038049;28;20029;-83
2021/12/07 13:33:34;;;;;;;3.65;2.20;;;6.60;77.50;;;;;;5036680;28;20033;-84
2021/12/07 13:36:01;;;;;;;3.92;2.50;;;6.70;77.50;;;;;;5037226;28;20033;-84
2021/12/07 13:38:29;;;;;;;4.53;2.15;;;6.70;77.40;;;;;;5037542;28;20040;-85
2021/12/07 13:41:15;;;;;;;3.47;2.00;;;6.70;77.50;;;;;;5037296;28;20465;-85
2021/12/07 13:43:44;;;;;;;3.83;2.30;;;6.70;77.50;;;;;;5020483;28;20040;-86
2021/12/07 13:46:23;;;;;;;4.45;2.33;;;6.80;77.40;;;;;;5036737;28;20087;-86
2021/12/07 13:48:53;;;;;;;2.75;1.88;;;6.70;77.50;;;;;;5038389;28;20107;-87
2021/12/07 13:51:21;;;;;;;2.58;1.70;;;6.70;77.40;;;;;;5053645;28;20470;-87
2021/12/07 13:53:50;;;;;;;3.78;2.10;;;6.80;77.40;;;;;;5037997;28;20029;-88
2021/12/07 13:56:17;;;;;;;3.47;2.10;;;6.80;77.40;;;;;;5038800;28;20031;-88
2021/12/07 13:59:04;;;;;;;4.80;2.05;;;6.80;77.30;;;;;;5053287;28;20021;-88
2021/12/07 14:01:35;;;;;;;3.78;2.20;;;6.80;77.40;;;;;;5037213;28;20485;-88
2021/12/07 14:04:09;;;;;;;4.25;2.10;;;6.80;77.30;;;;;;5038734;28;20040;-87
2021/12/07 14:06:44;;;;;;;3.35;2.25;;;6.90;77.30;;;;;;5036881;28;20054;-88
2021/12/07 14:09:13;;;;;;;3.40;2.08;;;6.80;77.30;;;;;;5036561;28;20163;-91
2021/12/07 14:11:42;;;;;;;2.60;1.70;;;6.80;77.30;;;;;;5037196;28;20036;-86
2021/12/07 14:14:22;;;;;;;2.88;2.10;;;6.80;77.30;;;;;;5036976;28;20017;-90
2021/12/07 14:16:54;;;;;;;3.67;1.95;;;6.90;77.40;;;;;;5037038;28;20029;-89
2021/12/07 14:19:20;;;;;;;4.18;2.13;;;6.90;77.30;;;;;;5036945;28;20100;-90
2021/12/07 14:22:00;;;;;;;2.42;1.85;;;6.90;77.30;;;;;;5053792;28;20055;-90
2021/12/07 14:24:53;;;;;;;5.03;2.38;;;6.90;77.30;;;;;;5039146;28;20083;-88
2021/12/07 14:27:21;;;;;;;3.10;2.10;;;6.90;77.30;;;;;;5053297;28;20596;-87
2021/12/07 14:29:52;;;;;;;3.75;2.10;;;6.90;77.30;;;;;;5037192;28;20032;-93
2021/12/07 14:32:18;;;;;;;3.28;1.98;;;6.90;77.30;;;;;;5020895;28;20040;-87
2021/12/07 14:34:47;;;;;;;4.50;2.03;;;6.90;77.20;;;;;;5036182;28;20025;-88
2021/12/07 14:37:16;;;;;;;3.53;2.30;;;6.90;77.20;;;;;;5004598;28;20028;-88
2021/12/07 14:39:48;;;;;;;3.30;2.20;;;6.90;77.20;;;;;;5036383;28;20021;-88
2021/12/07 14:42:17;;;;;;;4.20;2.15;;;6.90;77.20;;;;;;5052821;28;20029;-89
2021/12/07 14:44:48;;;;;;;3.42;2.20;;;6.90;77.20;;;;;;5036631;28;20029;-89
2021/12/07 14:47:15;;;;;;;3.00;1.73;;;6.90;77.30;;;;;;5039508;28;20063;-88
2021/12/07 14:49:50;;;;;;;2.83;1.75;;;6.90;77.20;;;;;;5040362;28;20050;-89
2021/12/07 14:52:29;;;;;;;3.67;2.30;;;6.90;77.30;;;;;;5041070;28;20029;-90
2021/12/07 14:55:08;;;;;;;4.07;2.03;;;7.00;77.30;;;;;;5026234;28;20487;-90
2021/12/07 14:57:40;;;;;;;4.50;1.75;;;7.00;77.20;;;;;;5057065;28;20029;-89
2021/12/07 15:00:18;;;;;;;;;;;;;;;;;;;;;
2021/12/07 15:03:04;;;;;;;;;;;;;;;;;;;;;